Ellenburg Center, NY (12934)

9:00 PM EDT on April 24, 2015 (GMT -0400)
Ellenburg Depot | | Change Station
CLOSE
Current Station
Personal Weather Station
Location: Ellenburg Depot, NY
Elevation: 1000 ft
Nearby Weather Stations

Elev 1000 ft 44.91 °N, 73.82 °W | Updated 4 seconds ago

Overcast
Overcast
34.0 °F
Feels Like 28 °F
N
7.0
Wind Variable Wind from West
Gusts 12.0 mph

Today
High -- | Low -- °F
--% Chance of Precip.
Yesterday
High -- | Low -- °F
Precip. -- in
5:56 AM 7:51 PM
Waxing Crescent, 41% visible
Pressure 29.87 in
Visibility 10.0 miles
Clouds Overcast 5000 ft
Windchill 28 °F
Dew Point 23 °F
Humidity 63%
Rainfall 0.00 in
Snow Depth Not available.
UV 0 out of 12
Pollen 7.80 out of 12
Air Quality Not available.
Flu Activity Widespread
METAR KPBG 250053Z AUTO 30007KT 10SM OVC050 03/M07 A2986 RMK AO2 SLP113 T00331067

More Conditions Fewer Conditions

Pressure 29.87 in
Visibility 10.0 miles
Clouds Overcast 5000 ft
Windchill 28 °F
Dew Point 23 °F
Humidity 63%
Rainfall 0.00 in
Snow Depth Not available.
UV 0 out of 12
Pollen 7.80 out of 12
Air Quality Not available.
Flu Activity Widespread
METAR KPBG 250053Z AUTO 30007KT 10SM OVC050 03/M07 A2986 RMK AO2 SLP113 T00331067

More Conditions Fewer Conditions

10-Day Weather Forecast

Almanac

Astronomy

Apr. 24, 2015 Rise Set
Actual Time
Civil Twilight
Nautical Twilight
Astronomical Twilight
Moon
Length of Visible Light
Length of Day
Tomorrow will be .
, % of the Moon is Illuminated

Today's Extremes

State Highs State Lows

Community

WunderPhotos

Upload Photos

1,816,541 photos uploaded!

WunderBlogs® & News

Nearby

Air Quality

  Air Quality AQ Index Pollutant
Not available.

Snow Depth

Station Depth Elevation

Earthquake Activity

City Distance Mag. Time & Date
Minimum magnitude displayed is 2.5.

Coastal Water Temperatures

Place Temperature

Stations

Nearby Weather Stations

Station Location Temp. Windchill Dew Point Humidity Wind Precip. Elev Updated Type